createdAt,value
2022-10-05T00:00:01.101Z,1019.63
2022-10-05T00:01:01.483Z,1019.54
2022-10-05T00:02:02.155Z,1019.55
2022-10-05T00:03:01.509Z,1019.49
2022-10-05T00:04:01.494Z,1019.49
2022-10-05T00:05:01.172Z,1019.44
2022-10-05T00:06:01.151Z,1019.45
2022-10-05T00:07:01.186Z,1019.44
2022-10-05T00:08:01.135Z,1019.42
2022-10-05T00:09:01.046Z,1019.43
2022-10-05T00:10:01.448Z,1019.45
2022-10-05T00:11:02.596Z,1019.43
2022-10-05T00:12:01.781Z,1019.46
2022-10-05T00:13:01.755Z,1019.42
2022-10-05T00:14:02.093Z,1019.47
2022-10-05T00:15:01.952Z,1019.47
2022-10-05T00:16:06.279Z,1019.45
2022-10-05T00:17:02.311Z,1019.44
2022-10-05T00:18:01.495Z,1019.43
2022-10-05T00:19:02.927Z,1019.42
2022-10-05T00:20:01.117Z,1019.43
2022-10-05T00:21:09.255Z,1019.35
2022-10-05T00:22:01.151Z,1019.36
2022-10-05T00:23:01.139Z,1019.33
2022-10-05T00:24:00.752Z,1019.35
2022-10-05T00:25:00.399Z,1019.32
2022-10-05T00:26:11.101Z,1019.32
2022-10-05T00:27:01.966Z,1019.36
2022-10-05T00:28:01.139Z,1019.34
2022-10-05T00:29:01.081Z,1019.43
2022-10-05T00:30:01.056Z,1019.4
2022-10-05T00:31:15.200Z,1019.35
2022-10-05T00:32:01.471Z,1019.37
2022-10-05T00:33:01.432Z,1019.35
2022-10-05T00:34:02.015Z,1019.31
2022-10-05T00:35:02.112Z,1019.34
2022-10-05T00:36:00.699Z,1019.27
2022-10-05T00:37:00.342Z,1019.24
2022-10-05T00:38:00.004Z,1019.29
2022-10-05T00:38:59.890Z,1019.31
2022-10-05T00:39:59.602Z,1019.3
2022-10-05T00:41:01.197Z,1019.32
2022-10-05T00:42:01.153Z,1019.34
2022-10-05T00:43:01.052Z,1019.33
2022-10-05T00:44:01.087Z,1019.29
2022-10-05T00:45:01.083Z,1019.38
2022-10-05T00:46:01.109Z,1019.33
2022-10-05T00:47:01.165Z,1019.32
2022-10-05T00:48:01.302Z,1019.3
2022-10-05T00:49:01.788Z,1019.37
2022-10-05T00:50:01.619Z,1019.37
2022-10-05T00:51:02.158Z,1019.36
2022-10-05T00:52:00.929Z,1019.37
2022-10-05T00:53:01.129Z,1019.36
2022-10-05T00:54:01.140Z,1019.35
2022-10-05T00:55:01.261Z,1019.4
2022-10-05T00:56:01.535Z,1019.39
2022-10-05T00:57:01.174Z,1019.38
2022-10-05T00:58:01.871Z,1019.46
2022-10-05T00:59:01.978Z,1019.43
2022-10-05T01:00:02.601Z,1019.42
2022-10-05T01:01:00.860Z,1019.37
2022-10-05T01:02:01.509Z,1019.35
2022-10-05T01:03:01.493Z,1019.37
2022-10-05T01:04:01.084Z,1019.38
2022-10-05T01:05:01.141Z,1019.38
2022-10-05T01:06:01.099Z,1019.39
2022-10-05T01:07:01.120Z,1019.34
2022-10-05T01:08:01.117Z,1019.35
2022-10-05T01:09:01.115Z,1019.34
2022-10-05T01:10:01.125Z,1019.26
2022-10-05T01:11:01.288Z,1019.34
2022-10-05T01:12:01.272Z,1019.25
2022-10-05T01:13:02.228Z,1019.29
2022-10-05T01:14:01.155Z,1019.25
2022-10-05T01:15:01.060Z,1019.24
2022-10-05T01:16:01.105Z,1019.26
2022-10-05T01:17:01.206Z,1019.23
2022-10-05T01:18:02.253Z,1019.23
2022-10-05T01:19:02.026Z,1019.2
2022-10-05T01:20:02.147Z,1019.27
2022-10-05T01:21:01.207Z,1019.21
2022-10-05T01:22:01.134Z,1019.25
2022-10-05T01:23:01.184Z,1019.19
2022-10-05T01:24:01.124Z,1019.18
2022-10-05T01:25:01.132Z,1019.18
2022-10-05T01:26:01.058Z,1019.22
2022-10-05T01:27:01.440Z,1019.2
2022-10-05T01:28:01.186Z,1019.13
2022-10-05T01:29:01.150Z,1019.16
2022-10-05T01:30:01.144Z,1019.13
2022-10-05T01:31:01.048Z,1019.13
2022-10-05T01:32:01.482Z,1019.06
2022-10-05T01:33:01.098Z,1019.08
2022-10-05T01:34:01.078Z,1019.04
2022-10-05T01:35:01.076Z,1019.03
2022-10-05T01:36:01.083Z,1018.97
2022-10-05T01:37:01.514Z,1018.95
2022-10-05T01:38:01.494Z,1018.95
2022-10-05T01:39:01.070Z,1018.97
2022-10-05T01:40:00.689Z,1018.96
2022-10-05T01:41:00.403Z,1018.99
2022-10-05T01:42:00.166Z,1019.06
2022-10-05T01:42:59.770Z,1019.12
2022-10-05T01:44:01.372Z,1019.15
2022-10-05T01:45:01.068Z,1019.17
2022-10-05T01:46:01.268Z,1019.2
2022-10-05T01:47:00.694Z,1019.24
2022-10-05T01:48:00.708Z,1019.25
2022-10-05T01:49:00.345Z,1019.32
2022-10-05T01:49:59.929Z,1019.27
2022-10-05T01:50:59.571Z,1019.23
2022-10-05T01:52:03.756Z,1019.15
2022-10-05T01:53:01.313Z,1019.14
2022-10-05T01:54:01.107Z,1019.12
2022-10-05T01:55:01.121Z,1019.1
2022-10-05T01:56:01.122Z,1019.12
2022-10-05T01:57:06.644Z,1019.13
2022-10-05T01:58:01.516Z,1019.18
2022-10-05T01:59:01.153Z,1019.14
2022-10-05T02:00:01.139Z,1019.2
2022-10-05T02:01:01.271Z,1019.26
2022-10-05T02:02:09.599Z,1019.26
2022-10-05T02:03:01.054Z,1019.32
2022-10-05T02:04:01.155Z,1019.33
2022-10-05T02:05:02.618Z,1019.32
2022-10-05T02:06:01.464Z,1019.34
2022-10-05T02:07:12.985Z,1019.29
2022-10-05T02:08:01.086Z,1019.27
2022-10-05T02:09:01.103Z,1019.29
2022-10-05T02:10:01.319Z,1019.27
2022-10-05T02:11:01.110Z,1019.29
2022-10-05T02:12:16.167Z,1019.35
2022-10-05T02:13:01.282Z,1019.32
2022-10-05T02:14:01.058Z,1019.39
2022-10-05T02:15:01.128Z,1019.41
2022-10-05T02:16:01.265Z,1019.39
2022-10-05T02:17:01.153Z,1019.37
2022-10-05T02:18:01.163Z,1019.27
2022-10-05T02:19:01.053Z,1019.24
2022-10-05T02:20:01.066Z,1019.2
2022-10-05T02:21:01.478Z,1019.18
2022-10-05T02:22:01.104Z,1019.11
2022-10-05T02:23:01.074Z,1019.06
2022-10-05T02:24:01.087Z,1019.01
2022-10-05T02:25:01.086Z,1018.98
2022-10-05T02:26:01.092Z,1018.99
2022-10-05T02:27:01.050Z,1018.97
2022-10-05T02:28:01.564Z,1019.01
2022-10-05T02:29:01.503Z,1019.02
2022-10-05T02:30:02.675Z,1019.06
2022-10-05T02:31:01.130Z,1019.08
2022-10-05T02:32:01.144Z,1019.07
2022-10-05T02:33:01.173Z,1019.09
2022-10-05T02:34:01.149Z,1019.11
2022-10-05T02:35:01.038Z,1019.14
2022-10-05T02:36:01.066Z,1019.12
2022-10-05T02:37:01.063Z,1019.11
2022-10-05T02:38:01.072Z,1019.05
2022-10-05T02:39:01.076Z,1019.06
2022-10-05T02:40:01.081Z,1019.03
2022-10-05T02:41:01.058Z,1019.05
2022-10-05T02:42:01.057Z,1019.04
2022-10-05T02:43:01.426Z,1019.02
2022-10-05T02:44:01.563Z,1019.07
2022-10-05T02:45:01.045Z,1019.08
2022-10-05T02:46:01.273Z,1018.99
2022-10-05T02:47:02.055Z,1018.95
2022-10-05T02:48:02.051Z,1018.97
2022-10-05T02:49:01.775Z,1019
2022-10-05T02:50:00.938Z,1019.03
2022-10-05T02:51:00.645Z,1019.01
2022-10-05T02:52:00.466Z,1019.02
2022-10-05T02:53:00.131Z,1019.07
2022-10-05T02:53:59.831Z,1019.09
2022-10-05T02:55:01.538Z,1019.05
2022-10-05T02:56:01.130Z,1019.13
2022-10-05T02:57:01.162Z,1019.11
2022-10-05T02:58:01.198Z,1019.16
2022-10-05T02:59:01.828Z,1019.2
2022-10-05T03:00:01.127Z,1019.19
2022-10-05T03:01:00.966Z,1019.16
2022-10-05T03:02:01.914Z,1019.2
2022-10-05T03:03:01.135Z,1019.14
2022-10-05T03:04:01.152Z,1019.19
2022-10-05T03:05:01.191Z,1019.14
2022-10-05T03:06:01.153Z,1019.13
2022-10-05T03:07:01.179Z,1019.13
2022-10-05T03:08:01.173Z,1019.15
2022-10-05T03:09:01.069Z,1019.13
2022-10-05T03:10:01.395Z,1019.15
2022-10-05T03:11:01.086Z,1019.19
2022-10-05T03:12:01.093Z,1019.17
2022-10-05T03:13:01.106Z,1019.15
2022-10-05T03:14:01.098Z,1019.18
2022-10-05T03:15:01.528Z,1019.18
2022-10-05T03:16:01.451Z,1019.2
2022-10-05T03:17:01.122Z,1019.24
2022-10-05T03:18:01.131Z,1019.18
2022-10-05T03:19:01.131Z,1019.17
2022-10-05T03:20:01.143Z,1019.18
2022-10-05T03:21:01.073Z,1019.15
2022-10-05T03:22:01.077Z,1019.21
2022-10-05T03:23:01.265Z,1019.19
2022-10-05T03:24:01.454Z,1019.17
2022-10-05T03:25:02.276Z,1019.2
2022-10-05T03:26:01.781Z,1019.22
2022-10-05T03:27:02.639Z,1019.22
2022-10-05T03:28:04.788Z,1019.22
2022-10-05T03:29:01.770Z,1019.19
2022-10-05T03:30:01.114Z,1019.22
2022-10-05T03:31:01.177Z,1019.21
2022-10-05T03:32:01.125Z,1019.22
2022-10-05T03:33:06.417Z,1019.2
2022-10-05T03:34:02.187Z,1019.17
2022-10-05T03:35:01.015Z,1019.24
2022-10-05T03:36:01.127Z,1019.23
2022-10-05T03:37:01.154Z,1019.22
2022-10-05T03:38:10.434Z,1019.16
2022-10-05T03:39:01.149Z,1019.18
2022-10-05T03:40:01.056Z,1019.21
2022-10-05T03:41:01.062Z,1019.19
2022-10-05T03:42:01.076Z,1019.21
2022-10-05T03:43:10.563Z,1019.19
2022-10-05T03:44:01.198Z,1019.18
2022-10-05T03:45:02.456Z,1019.14
2022-10-05T03:46:01.622Z,1019.17
2022-10-05T03:47:02.204Z,1019.18
2022-10-05T03:48:13.324Z,1019.17
2022-10-05T03:49:01.116Z,1019.18
2022-10-05T03:50:01.061Z,1019.22
2022-10-05T03:51:01.043Z,1019.24
2022-10-05T03:52:01.155Z,1019.29
2022-10-05T03:53:16.317Z,1019.32
2022-10-05T03:54:02.069Z,1019.29
2022-10-05T03:55:01.076Z,1019.24
2022-10-05T03:56:03.230Z,1019.3
2022-10-05T03:57:01.137Z,1019.24
2022-10-05T03:58:01.071Z,1019.25
2022-10-05T03:59:01.042Z,1019.2
2022-10-05T04:00:01.048Z,1019.22
2022-10-05T04:01:01.095Z,1019.23
2022-10-05T04:02:01.103Z,1019.21
2022-10-05T04:03:01.215Z,1019.14
2022-10-05T04:04:01.510Z,1019.21
2022-10-05T04:05:01.000Z,1019.17
2022-10-05T04:06:01.368Z,1019.15
2022-10-05T04:07:02.869Z,1019.08
2022-10-05T04:08:02.059Z,1019.13
2022-10-05T04:09:01.156Z,1019.06
2022-10-05T04:10:03.154Z,1019.07
2022-10-05T04:11:01.587Z,1019.1
2022-10-05T04:12:01.063Z,1019
2022-10-05T04:13:01.078Z,1019.11
2022-10-05T04:14:01.085Z,1019.09
2022-10-05T04:15:01.054Z,1019.12
2022-10-05T04:16:01.128Z,1019.06
2022-10-05T04:17:01.117Z,1019.1
2022-10-05T04:18:01.112Z,1019.06
2022-10-05T04:19:01.102Z,1019.1
2022-10-05T04:20:01.664Z,1019.02
2022-10-05T04:21:01.118Z,1019
2022-10-05T04:22:01.137Z,1019.03
2022-10-05T04:23:01.142Z,1019
2022-10-05T04:24:01.159Z,1019.06
2022-10-05T04:25:01.445Z,1019.01
2022-10-05T04:26:01.362Z,1019.04
2022-10-05T04:27:01.464Z,1019.04
2022-10-05T04:28:01.766Z,1019.05
2022-10-05T04:29:01.453Z,1019.02
2022-10-05T04:30:01.059Z,1019.08
2022-10-05T04:31:01.226Z,1019.08
2022-10-05T04:32:02.146Z,1019.06
2022-10-05T04:33:01.824Z,1019.06
2022-10-05T04:34:01.425Z,1019.07
2022-10-05T04:35:01.130Z,1019.03
2022-10-05T04:36:01.063Z,1019.01
2022-10-05T04:37:01.055Z,1019.04
2022-10-05T04:38:01.072Z,1018.99
2022-10-05T04:39:01.456Z,1018.99
2022-10-05T04:40:01.768Z,1018.99
2022-10-05T04:41:03.059Z,1018.98
2022-10-05T04:42:01.067Z,1019.06
2022-10-05T04:43:01.755Z,1019.06
2022-10-05T04:44:04.940Z,1019.02
2022-10-05T04:45:01.464Z,1018.98
2022-10-05T04:46:01.422Z,1018.96
2022-10-05T04:47:01.277Z,1018.92
2022-10-05T04:48:01.523Z,1018.9
2022-10-05T04:49:02.010Z,1018.95
2022-10-05T04:50:01.418Z,1018.93
2022-10-05T04:51:01.118Z,1018.86
2022-10-05T04:52:00.716Z,1018.88
2022-10-05T04:53:00.316Z,1018.85
2022-10-05T04:53:59.876Z,1018.88
2022-10-05T04:54:59.971Z,1018.88
2022-10-05T04:55:59.588Z,1018.88
2022-10-05T04:57:01.715Z,1018.88
2022-10-05T04:58:01.158Z,1018.88
2022-10-05T04:59:01.063Z,1018.87
2022-10-05T05:00:01.058Z,1018.89
2022-10-05T05:01:01.134Z,1018.89
2022-10-05T05:02:01.088Z,1018.9
2022-10-05T05:03:01.097Z,1018.95
2022-10-05T05:04:01.257Z,1018.93
2022-10-05T05:05:00.708Z,1018.92
2022-10-05T05:06:16.358Z,1018.95
2022-10-05T05:07:01.140Z,1018.91
2022-10-05T05:08:00.827Z,1018.91
2022-10-05T05:09:01.803Z,1018.87
2022-10-05T05:10:00.982Z,1018.88
2022-10-05T05:11:01.138Z,1018.87
2022-10-05T05:12:00.838Z,1018.86
2022-10-05T05:13:01.159Z,1018.88
2022-10-05T05:14:01.151Z,1018.92
2022-10-05T05:15:01.172Z,1018.97
2022-10-05T05:16:01.940Z,1018.91
2022-10-05T05:17:01.457Z,1018.92
2022-10-05T05:18:01.159Z,1018.91
2022-10-05T05:19:01.716Z,1018.98
2022-10-05T05:20:01.773Z,1018.93
2022-10-05T05:21:02.147Z,1018.95
2022-10-05T05:22:01.304Z,1018.95
2022-10-05T05:23:01.121Z,1018.95
2022-10-05T05:24:04.017Z,1018.94
2022-10-05T05:25:01.125Z,1018.88
2022-10-05T05:26:01.121Z,1018.93
2022-10-05T05:27:01.153Z,1018.91
2022-10-05T05:28:01.195Z,1018.92
2022-10-05T05:29:05.669Z,1018.85
2022-10-05T05:30:02.001Z,1018.85
2022-10-05T05:31:02.212Z,1018.87
2022-10-05T05:32:00.985Z,1018.79
2022-10-05T05:33:01.073Z,1018.8
2022-10-05T05:34:09.244Z,1018.79
2022-10-05T05:35:01.087Z,1018.84
2022-10-05T05:36:01.081Z,1018.8
2022-10-05T05:37:01.086Z,1018.83
2022-10-05T05:38:01.118Z,1018.86
2022-10-05T05:39:11.390Z,1018.79
2022-10-05T05:40:01.108Z,1018.84
2022-10-05T05:41:01.127Z,1018.82
2022-10-05T05:42:01.137Z,1018.85
2022-10-05T05:43:01.124Z,1018.82
2022-10-05T05:44:14.992Z,1018.8
2022-10-05T05:45:01.050Z,1018.8
2022-10-05T05:46:01.438Z,1018.8
2022-10-05T05:47:05.350Z,1018.83
2022-10-05T05:48:01.079Z,1018.82
2022-10-05T05:49:01.085Z,1018.87
2022-10-05T05:50:06.607Z,1018.82
2022-10-05T05:51:01.086Z,1018.85
2022-10-05T05:52:00.942Z,1018.82
2022-10-05T05:53:01.449Z,1018.87
2022-10-05T05:54:01.431Z,1018.83
2022-10-05T05:55:01.118Z,1018.82
2022-10-05T05:56:01.128Z,1018.85
2022-10-05T05:57:01.396Z,1018.84
2022-10-05T05:58:01.122Z,1018.85
2022-10-05T05:59:01.349Z,1018.84
2022-10-05T06:00:01.425Z,1018.83
2022-10-05T06:01:03.061Z,1018.81
2022-10-05T06:02:01.243Z,1018.8
2022-10-05T06:03:01.263Z,1018.81
2022-10-05T06:04:02.476Z,1018.82
2022-10-05T06:05:01.074Z,1018.81
2022-10-05T06:06:01.072Z,1018.85
2022-10-05T06:07:01.128Z,1018.9
2022-10-05T06:08:01.148Z,1018.9
2022-10-05T06:09:01.172Z,1018.91
2022-10-05T06:10:01.094Z,1018.96
2022-10-05T06:11:01.105Z,1018.96
2022-10-05T06:12:00.833Z,1018.94
2022-10-05T06:13:01.881Z,1018.94
2022-10-05T06:14:01.274Z,1018.91
2022-10-05T06:15:01.357Z,1018.89
2022-10-05T06:16:01.321Z,1018.89
2022-10-05T06:17:02.263Z,1018.9
2022-10-05T06:18:01.247Z,1018.93
2022-10-05T06:19:01.877Z,1018.92
2022-10-05T06:20:05.321Z,1018.93
2022-10-05T06:21:01.066Z,1018.91
2022-10-05T06:22:01.166Z,1018.9
2022-10-05T06:23:01.427Z,1018.96
2022-10-05T06:24:03.970Z,1018.84
2022-10-05T06:25:02.027Z,1018.82
2022-10-05T06:26:02.526Z,1018.84
2022-10-05T06:27:01.521Z,1018.78
2022-10-05T06:28:01.211Z,1018.83
2022-10-05T06:29:01.188Z,1018.78
2022-10-05T06:30:01.146Z,1018.8
2022-10-05T06:31:01.244Z,1018.8
2022-10-05T06:32:01.047Z,1018.77
2022-10-05T06:33:01.037Z,1018.76
2022-10-05T06:34:01.058Z,1018.76
2022-10-05T06:35:04.616Z,1018.8
2022-10-05T06:36:01.376Z,1018.8
2022-10-05T06:37:01.419Z,1018.8
2022-10-05T06:38:01.553Z,1018.82
2022-10-05T06:39:02.194Z,1018.81
2022-10-05T06:40:01.505Z,1018.75
2022-10-05T06:41:01.112Z,1018.73
2022-10-05T06:42:01.116Z,1018.78
2022-10-05T06:43:01.111Z,1018.79
2022-10-05T06:44:01.272Z,1018.79
2022-10-05T06:45:01.115Z,1018.79
2022-10-05T06:46:01.310Z,1018.8
2022-10-05T06:47:04.104Z,1018.83
2022-10-05T06:48:05.343Z,1018.81
2022-10-05T06:49:01.037Z,1018.8
2022-10-05T06:50:01.185Z,1018.83
2022-10-05T06:51:01.101Z,1018.8
2022-10-05T06:52:01.081Z,1018.81
2022-10-05T06:53:01.284Z,1018.81
2022-10-05T06:54:01.985Z,1018.84
2022-10-05T06:55:01.409Z,1018.83
2022-10-05T06:56:01.311Z,1018.87
2022-10-05T06:57:02.278Z,1018.84
2022-10-05T06:58:02.056Z,1018.83
2022-10-05T06:59:01.175Z,1018.84
2022-10-05T07:00:03.601Z,1018.85
2022-10-05T07:01:01.171Z,1018.8
2022-10-05T07:02:00.953Z,1018.83
2022-10-05T07:03:01.128Z,1018.85
2022-10-05T07:04:01.146Z,1018.83
2022-10-05T07:05:06.199Z,1018.85
2022-10-05T07:06:02.488Z,1018.88
2022-10-05T07:07:01.077Z,1018.92
2022-10-05T07:08:01.066Z,1018.92
2022-10-05T07:09:01.058Z,1018.94
2022-10-05T07:10:08.930Z,1018.95
2022-10-05T07:11:01.098Z,1018.95
2022-10-05T07:12:05.244Z,1018.93
2022-10-05T07:13:01.249Z,1018.95
2022-10-05T07:14:01.111Z,1018.94
2022-10-05T07:15:10.213Z,1018.96
2022-10-05T07:16:01.376Z,1018.96
2022-10-05T07:17:01.339Z,1018.94
2022-10-05T07:18:01.339Z,1018.96
2022-10-05T07:19:01.356Z,1018.98
2022-10-05T07:20:12.464Z,1018.93
2022-10-05T07:21:02.066Z,1018.96
2022-10-05T07:22:01.188Z,1018.98
2022-10-05T07:23:01.063Z,1018.98
2022-10-05T07:24:01.073Z,1018.98
2022-10-05T07:25:14.883Z,1018.98
2022-10-05T07:26:01.083Z,1018.97
2022-10-05T07:27:01.091Z,1018.98
2022-10-05T07:28:00.850Z,1018.96
2022-10-05T07:29:00.571Z,1018.96
2022-10-05T07:30:15.932Z,1018.98
2022-10-05T07:31:01.903Z,1018.96
2022-10-05T07:32:01.119Z,1019.04
2022-10-05T07:33:00.807Z,1019
2022-10-05T07:34:00.414Z,1019.04
2022-10-05T07:35:00.202Z,1019.03
2022-10-05T07:35:59.786Z,1019.04
2022-10-05T07:37:01.467Z,1019.02
2022-10-05T07:38:02.604Z,1019.02
2022-10-05T07:39:01.249Z,1019.04
2022-10-05T07:40:01.927Z,1019.05
2022-10-05T07:41:02.631Z,1019.04
2022-10-05T07:42:02.856Z,1019.03
2022-10-05T07:43:01.271Z,1019.07
2022-10-05T07:44:02.832Z,1019.03
2022-10-05T07:45:01.100Z,1018.99
2022-10-05T07:46:01.233Z,1018.99
2022-10-05T07:47:01.111Z,1019.02
2022-10-05T07:48:01.054Z,1019.08
2022-10-05T07:49:01.054Z,1019.06
2022-10-05T07:50:01.116Z,1019.04
2022-10-05T07:51:01.251Z,1019.08
2022-10-05T07:52:01.950Z,1019
2022-10-05T07:53:01.373Z,1019.05
2022-10-05T07:54:02.586Z,1018.99
2022-10-05T07:55:02.074Z,1018.98
2022-10-05T07:56:01.751Z,1019
2022-10-05T07:57:04.436Z,1019.02
2022-10-05T07:58:01.367Z,1019
2022-10-05T07:59:02.512Z,1019.01
2022-10-05T08:00:01.045Z,1019.01
2022-10-05T08:01:01.277Z,1019.01
2022-10-05T08:02:01.513Z,1019.02
2022-10-05T08:03:01.593Z,1019.04
2022-10-05T08:04:02.120Z,1019.03
2022-10-05T08:05:02.135Z,1018.99
2022-10-05T08:06:01.514Z,1018.99
2022-10-05T08:07:01.136Z,1018.97
2022-10-05T08:08:01.130Z,1018.97
2022-10-05T08:09:01.181Z,1019.01
2022-10-05T08:10:01.209Z,1018.95
2022-10-05T08:11:01.553Z,1018.98
2022-10-05T08:12:01.195Z,1018.94
2022-10-05T08:13:00.982Z,1018.99
2022-10-05T08:14:01.072Z,1018.99
2022-10-05T08:15:01.046Z,1018.95
2022-10-05T08:16:01.230Z,1018.99
2022-10-05T08:17:01.876Z,1018.94
2022-10-05T08:18:01.807Z,1018.94
2022-10-05T08:19:00.411Z,1019.02
2022-10-05T08:20:00.205Z,1018.98
2022-10-05T08:21:00.004Z,1019.03
2022-10-05T08:21:59.688Z,1018.98
2022-10-05T08:23:01.442Z,1019.03
2022-10-05T08:24:01.139Z,1018.95
2022-10-05T08:25:01.045Z,1018.9
2022-10-05T08:26:01.071Z,1018.94
2022-10-05T08:27:01.070Z,1018.95
2022-10-05T08:28:01.131Z,1018.96
2022-10-05T08:29:01.429Z,1018.9
2022-10-05T08:30:02.082Z,1018.87
2022-10-05T08:31:01.164Z,1018.79
2022-10-05T08:32:01.095Z,1018.77
2022-10-05T08:33:00.789Z,1018.78
2022-10-05T08:34:00.482Z,1018.81
2022-10-05T08:35:00.116Z,1018.77
2022-10-05T08:35:59.760Z,1018.76
2022-10-05T08:37:02.086Z,1018.72
2022-10-05T08:38:01.419Z,1018.74
2022-10-05T08:39:01.121Z,1018.77
2022-10-05T08:40:01.128Z,1018.71
2022-10-05T08:41:01.288Z,1018.69
2022-10-05T08:42:01.975Z,1018.71
2022-10-05T08:43:01.572Z,1018.65
2022-10-05T08:44:00.638Z,1018.68
2022-10-05T08:45:00.360Z,1018.61
2022-10-05T08:46:00.064Z,1018.62
2022-10-05T08:46:59.869Z,1018.57
2022-10-05T08:48:02.508Z,1018.59
2022-10-05T08:49:01.743Z,1018.59
2022-10-05T08:50:01.475Z,1018.63
2022-10-05T08:51:02.628Z,1018.62
2022-10-05T08:52:01.537Z,1018.64
2022-10-05T08:53:01.308Z,1018.66
2022-10-05T08:54:00.160Z,1018.66
2022-10-05T08:55:00.126Z,1018.7
2022-10-05T08:56:05.488Z,1018.59
2022-10-05T08:57:01.340Z,1018.62
2022-10-05T08:58:01.531Z,1018.65
2022-10-05T08:59:02.154Z,1018.63
2022-10-05T09:00:01.108Z,1018.63
2022-10-05T09:01:08.513Z,1018.63
2022-10-05T09:02:01.374Z,1018.67
2022-10-05T09:03:02.165Z,1018.66
2022-10-05T09:04:01.345Z,1018.71
2022-10-05T09:05:01.363Z,1018.7
2022-10-05T09:06:11.888Z,1018.64
2022-10-05T09:07:01.131Z,1018.64
2022-10-05T09:08:01.117Z,1018.65
2022-10-05T09:09:01.110Z,1018.59
2022-10-05T09:10:02.052Z,1018.54
2022-10-05T09:11:14.679Z,1018.58
2022-10-05T09:12:01.964Z,1018.52
2022-10-05T09:13:01.362Z,1018.52
2022-10-05T09:14:01.680Z,1018.53
2022-10-05T09:15:24.196Z,1018.58
2022-10-05T09:16:01.492Z,1018.56
2022-10-05T09:17:01.380Z,1018.57
2022-10-05T09:18:00.601Z,1018.58
2022-10-05T09:19:00.150Z,1018.58
2022-10-05T09:19:59.736Z,1018.57
2022-10-05T09:21:02.026Z,1018.56
2022-10-05T09:22:00.635Z,1018.53
2022-10-05T09:23:00.604Z,1018.51
2022-10-05T09:24:00.187Z,1018.51
2022-10-05T09:24:59.885Z,1018.51
2022-10-05T09:25:59.491Z,1018.51
2022-10-05T09:27:02.172Z,1018.53
2022-10-05T09:28:02.221Z,1018.49
2022-10-05T09:29:02.325Z,1018.47
2022-10-05T09:30:01.768Z,1018.51
2022-10-05T09:31:01.513Z,1018.56
2022-10-05T09:32:01.175Z,1018.54
2022-10-05T09:33:00.851Z,1018.52
2022-10-05T09:34:01.071Z,1018.52
2022-10-05T09:35:01.094Z,1018.5
2022-10-05T09:36:01.203Z,1018.44
2022-10-05T09:37:01.479Z,1018.45
2022-10-05T09:38:01.903Z,1018.41
2022-10-05T09:39:01.228Z,1018.41
2022-10-05T09:40:01.615Z,1018.4
2022-10-05T09:41:00.956Z,1018.41
2022-10-05T09:42:01.077Z,1018.45
2022-10-05T09:43:01.084Z,1018.41
2022-10-05T09:44:01.404Z,1018.39
2022-10-05T09:45:00.839Z,1018.38
2022-10-05T09:46:00.626Z,1018.31
2022-10-05T09:47:00.336Z,1018.33
2022-10-05T09:48:00.020Z,1018.28
2022-10-05T09:48:59.725Z,1018.29
2022-10-05T09:50:01.852Z,1018.27
2022-10-05T09:51:01.389Z,1018.33
2022-10-05T09:52:01.088Z,1018.34
2022-10-05T09:53:00.778Z,1018.32
2022-10-05T09:54:00.473Z,1018.31
2022-10-05T09:55:00.067Z,1018.35
2022-10-05T09:55:59.781Z,1018.3
2022-10-05T09:57:01.445Z,1018.28
2022-10-05T09:58:02.162Z,1018.28
2022-10-05T09:59:01.138Z,1018.31
2022-10-05T10:00:01.204Z,1018.27
2022-10-05T10:01:09.129Z,1018.3
2022-10-05T10:02:01.227Z,1018.27
2022-10-05T10:03:01.199Z,1018.25
2022-10-05T10:04:01.061Z,1018.22
2022-10-05T10:05:01.066Z,1018.27
2022-10-05T10:06:01.785Z,1018.19
2022-10-05T10:07:01.485Z,1018.18
2022-10-05T10:08:01.982Z,1018.14
2022-10-05T10:09:01.104Z,1018.12
2022-10-05T10:10:01.097Z,1018.16
2022-10-05T10:11:01.116Z,1018.1
2022-10-05T10:12:01.195Z,1018.12
2022-10-05T10:13:00.909Z,1018.07
2022-10-05T10:14:01.135Z,1018.09
2022-10-05T10:15:03.069Z,1018.07
2022-10-05T10:15:59.658Z,1018.08
2022-10-05T10:17:01.443Z,1018.04
2022-10-05T10:18:02.752Z,1018.06
2022-10-05T10:19:01.090Z,1018
2022-10-05T10:20:01.055Z,1018.03
2022-10-05T10:21:01.759Z,1018.05
2022-10-05T10:22:01.147Z,1017.99
2022-10-05T10:23:01.078Z,1017.96
2022-10-05T10:24:01.039Z,1017.94
2022-10-05T10:25:01.079Z,1017.94
2022-10-05T10:26:01.054Z,1017.98
2022-10-05T10:27:01.535Z,1017.94
2022-10-05T10:28:01.202Z,1017.96
2022-10-05T10:29:01.939Z,1017.94
2022-10-05T10:30:01.445Z,1017.95
2022-10-05T10:31:01.233Z,1018
2022-10-05T10:32:01.191Z,1018
2022-10-05T10:33:00.941Z,1017.97
2022-10-05T10:34:01.197Z,1017.92
2022-10-05T10:35:01.404Z,1017.91
2022-10-05T10:36:06.015Z,1017.9
2022-10-05T10:37:02.673Z,1017.85
2022-10-05T10:38:01.891Z,1017.89
2022-10-05T10:39:01.752Z,1017.91
2022-10-05T10:40:01.087Z,1017.9
2022-10-05T10:41:01.122Z,1017.89
2022-10-05T10:42:06.027Z,1017.82
2022-10-05T10:43:01.539Z,1017.87
2022-10-05T10:44:01.236Z,1017.82
2022-10-05T10:45:01.117Z,1017.79
2022-10-05T10:46:01.167Z,1017.76
2022-10-05T10:47:08.564Z,1017.75
2022-10-05T10:48:01.134Z,1017.76
2022-10-05T10:49:01.154Z,1017.73
2022-10-05T10:50:01.046Z,1017.75
2022-10-05T10:51:01.049Z,1017.76
2022-10-05T10:52:11.877Z,1017.8
2022-10-05T10:53:01.590Z,1017.81
2022-10-05T10:54:01.068Z,1017.83
2022-10-05T10:55:01.084Z,1017.78
2022-10-05T10:56:01.079Z,1017.69
2022-10-05T10:57:14.263Z,1017.71
2022-10-05T10:58:01.042Z,1017.65
2022-10-05T10:59:01.478Z,1017.66
2022-10-05T11:00:01.865Z,1017.72
2022-10-05T11:01:01.263Z,1017.74
2022-10-05T11:02:01.229Z,1017.75
2022-10-05T11:03:02.301Z,1017.72
2022-10-05T11:04:02.051Z,1017.7
2022-10-05T11:05:02.591Z,1017.67
2022-10-05T11:06:01.342Z,1017.71
2022-10-05T11:07:02.070Z,1017.68
2022-10-05T11:08:02.491Z,1017.64
2022-10-05T11:09:01.210Z,1017.67
2022-10-05T11:10:01.068Z,1017.69
2022-10-05T11:11:01.083Z,1017.7
2022-10-05T11:12:01.413Z,1017.67
2022-10-05T11:13:00.873Z,1017.7
2022-10-05T11:14:01.116Z,1017.72
2022-10-05T11:15:01.119Z,1017.71
2022-10-05T11:16:01.255Z,1017.72
2022-10-05T11:17:01.109Z,1017.72
2022-10-05T11:18:01.298Z,1017.73
2022-10-05T11:19:01.191Z,1017.68
2022-10-05T11:20:05.045Z,1017.74
2022-10-05T11:21:01.162Z,1017.66
2022-10-05T11:22:01.270Z,1017.64
2022-10-05T11:23:01.149Z,1017.68
2022-10-05T11:24:01.177Z,1017.65
2022-10-05T11:25:01.088Z,1017.66
2022-10-05T11:26:01.044Z,1017.56
2022-10-05T11:27:01.090Z,1017.61
2022-10-05T11:28:02.375Z,1017.59
2022-10-05T11:29:01.119Z,1017.58
2022-10-05T11:30:01.128Z,1017.55
2022-10-05T11:31:01.889Z,1017.56
2022-10-05T11:32:02.791Z,1017.53
2022-10-05T11:33:01.621Z,1017.5
2022-10-05T11:34:01.941Z,1017.54
2022-10-05T11:35:01.139Z,1017.48
2022-10-05T11:36:01.161Z,1017.49
2022-10-05T11:37:01.041Z,1017.46
2022-10-05T11:38:01.462Z,1017.47
2022-10-05T11:39:01.166Z,1017.47
2022-10-05T11:40:01.310Z,1017.46
2022-10-05T11:41:02.401Z,1017.39
2022-10-05T11:42:01.358Z,1017.47
2022-10-05T11:43:01.214Z,1017.38
2022-10-05T11:44:06.131Z,1017.46
2022-10-05T11:45:01.827Z,1017.44
2022-10-05T11:46:01.278Z,1017.35
2022-10-05T11:47:01.113Z,1017.36
2022-10-05T11:48:01.108Z,1017.34
2022-10-05T11:49:01.122Z,1017.3
2022-10-05T11:50:00.395Z,1017.29
2022-10-05T11:51:00.101Z,1017.31
2022-10-05T11:51:59.718Z,1017.25
2022-10-05T11:53:01.387Z,1017.26
2022-10-05T11:54:02.196Z,1017.2
2022-10-05T11:55:16.402Z,1017.24
2022-10-05T11:56:01.072Z,1017.27
2022-10-05T11:57:01.584Z,1017.27
2022-10-05T11:58:01.081Z,1017.23
2022-10-05T11:59:01.079Z,1017.22
2022-10-05T12:00:01.087Z,1017.16
2022-10-05T12:01:01.061Z,1017.23
2022-10-05T12:02:01.497Z,1017.23
2022-10-05T12:03:01.640Z,1017.24
2022-10-05T12:04:02.148Z,1017.23
2022-10-05T12:05:01.474Z,1017.24
2022-10-05T12:06:03.005Z,1017.21
2022-10-05T12:07:01.251Z,1017.14
2022-10-05T12:08:01.062Z,1017.12